ilmateenistus.ee keskkonnaagentuur.ee
EETN Tallinn
FTEO31 EETN 120500
TAF EETN 120505Z 1206/1306 22008KT 9999 SCT020 BECMG 1207/1209
    SCT030CB TEMPO 1209/1218 SHRA SCT012 BKN020CB TEMPO 1210/1216 VRB20KT
    2000 TSRA PROB40 TEMPO 1221/1304 3000 BR BKN004=

METAR EETN 120650Z 24008KT 210V280 CAVOK 17/10 Q1016 NOSIG=
Tallinn
EEKA Kärdla
METAR EEKA 120550Z NIL=
Kärdla
EEKE Kuressaare
METAR EEKE 120650Z AUTO 21007KT 180V240 9999NDV FEW006 16/13 Q1016=
Kuressaare
EEPU Pärnu
METAR EEPU 120550Z NIL=
Pärnu
EETU Tartu
METAR EETU 120650Z 25006KT 9999 SCT024 16/10 Q1017=
Tartu
EEEI Ämari
METAR EEEI 120650Z 20008KT 170V240 9999 FEW036 17/09 Q1016 NOSIG=
Ämari